Latest Coastal Weather Observations for Bundaberg

IDQ60701

Issued at 4:55 am EST Thursday 28 August 2014 (issued every 10 minutes, with the page automatically refreshed every 10 minutes)

About coastal observations | Map of coastal stations | Coastal observations for QLD | Marine services | Other Formats
Station Details ID: 039128 Name: BUNDABERG AERO Lat: -24.91 Lon: 152.32 Height: 30.82 m
Data from the previous 72 hours. | See also: Recent months at Bundaberg
Date/Time
EST
Temp

°C
Wind Pressure Rain
since 9am
mm
Weather Cloud Vis
km
Sea
Height
m
Swell
Dir
 
Speed
knots
Gust
knots
hPa Trend Height
m
Period
s
Dir
28/04:30am 12.3 WSW 8 11 1015.0 - 2.6 - - 10 - - - -
28/04:00am 10.9 W 6 8 1015.1 - 2.6 - - 10 - - - -
28/03:30am 10.7 W 6 8 1015.0 - 2.6 - - 10 - - - -
28/03:00am 12.0 WSW 7 9 1015.2 - 2.6 - - 10 - - - -
28/02:30am 10.3 W 6 9 1015.3 - 2.6 - - 10 - - - -
28/02:00am 10.6 W 7 8 1015.5 - 2.6 - - 10 - - - -
28/01:30am 10.4 W 8 9 1015.6 - 2.6 - - 10 - - - -
28/01:00am 11.1 W 6 8 1015.8 - 2.6 - - 10 - - - -
28/12:30am 11.8 W 7 8 1016.0 - 2.6 - - 10 - - - -
28/12:00am 12.5 W 8 9 1016.1 - 2.6 - - 10 - - - -
 
Date/Time
EST
Temp

°C
Wind Pressure Rain
since 9am
mm
Weather Cloud Vis
km
Sea
Height
m
Swell
Dir
 
Speed
knots
Gust
knots
hPa Trend Height
m
Period
s
Dir
27/11:30pm 13.4 WSW 7 9 1016.0 - 2.6 - - 10 - - - -
27/11:00pm 13.6 WSW 8 10 1016.1 - 2.6 - - 10 - - - -
27/10:30pm 13.1 SW 5 7 1016.1 - 2.6 - - 10 - - - -
27/10:00pm 12.8 SW 4 6 1016.2 - 2.6 - - 10 - - - -
27/09:30pm 13.3 SW 5 6 1016.2 - 2.6 - - 10 - - - -
27/09:00pm 13.8 SSW 5 7 1016.3 - 2.6 - - 10 - - - -
27/08:30pm 14.3 S 5 7 1016.3 - 2.6 - - 10 - - - -
27/08:00pm 15.2 S 6 11 1016.1 - 2.6 - - 10 - - - -
27/07:30pm 15.5 S 5 7 1015.6 - 2.6 - - 10 - - - -
27/07:00pm 16.6 SW 7 10 1015.0 - 2.6 - Partly cloudy 10 - - - -
27/06:30pm 16.5 WSW 5 8 1014.4 - 2.6 - - 10 - - - -
27/06:00pm 17.4 N 6 8 1013.8 - 2.6 - - 10 - - - -
27/05:30pm 18.4 NNW 8 9 1013.5 - 2.6 - - 10 - - - -
27/05:00pm 19.9 N 11 13 1013.1 - 2.6 - - 10 - - - -
27/04:30pm 20.0 N 11 14 1012.8 - 2.6 - Partly cloudy 10 - - - -
27/04:00pm 20.9 N 12 15 1012.5 - 2.6 - - 10 - - - -
27/03:30pm 20.6 N 11 16 1012.4 - 2.6 - Partly cloudy 10 - - - -
27/03:00pm 18.8 N 12 15 1012.5 - 2.6 Showers Mostly cloudy 10 - - - -
27/02:30pm 19.4 N 14 18 1012.6 - 0.2 - Partly cloudy 10 - - - -
27/02:00pm 22.4 N 14 17 1012.5 - 0.0 - Partly cloudy 10 - - - -
27/01:30pm 23.5 N 10 14 1013.0 - 0.0 - - 10 - - - -
27/01:00pm 22.3 N 12 15 1013.5 - 0.0 - Partly cloudy 10 - - - -
27/12:30pm 20.7 W 5 8 1014.0 - 0.0 - Partly cloudy 10 - - - -
27/12:00pm 21.7 NNW 5 9 1014.5 - 0.0 - Cloudy 10 - - - -
27/11:30am 21.5 NW 3 9 1015.1 - 0.0 - Partly cloudy 10 - - - -
27/11:00am 21.8 W 7 11 1015.7 - 0.0 - Partly cloudy 10 - - - -
27/10:30am 22.1 WNW 5 11 1016.0 - 0.0 - Partly cloudy 10 - - - -
27/10:00am 20.7 WNW 5 8 1016.2 - 0.0 - Partly cloudy 10 - - - -
27/09:30am 20.1 SW 3 5 1016.5 - 0.0 - - 10 - - - -
27/09:00am 19.0 S 4 6 1016.4 - 0.0 - - 10 - - - -
27/08:30am 17.3 SSW 4 6 1016.4 - 0.0 - - 10 - - - -
27/08:00am 16.1 S 7 10 1016.4 - 0.0 - - 10 - - - -
27/07:30am 15.3 S 6 8 1016.1 - 0.0 - - 10 - - - -
27/07:00am 14.0 SSW 5 7 1015.9 - 0.0 - - 10 - - - -
27/06:30am 12.0 CALM 0 0 1015.7 - 0.0 - - 10 - - - -
27/06:00am 12.8 SW 4 5 1015.6 - 0.0 - - 10 - - - -
27/05:30am 13.0 W 3 4 1015.4 - 0.0 - Partly cloudy 10 - - - -
27/05:00am 13.7 WSW 4 5 1015.4 - 0.0 - Partly cloudy 10 - - - -
27/04:30am 13.2 WSW 6 7 1015.2 - 0.0 - Partly cloudy 6 - - - -
27/04:00am 11.6 WSW 6 7 1015.1 - 0.0 - - 8 - - - -
27/03:30am 12.1 SSW 4 5 1014.7 - 0.0 - - 10 - - - -
27/03:19am 11.5 SSW 4 5 1014.7 - 0.0 - - 10 - - - -
27/03:00am 11.9 CALM 0 0 1014.6 - 0.0 - - 5 - - - -
27/02:30am 12.5 CALM 0 0 1014.9 - 0.0 - - 10 - - - -
27/02:00am 12.6 CALM 0 0 1015.4 - 0.0 - - 10 - - - -
27/01:36am 12.8 CALM 0 3 1015.9 - 0.0 - - 10 - - - -
27/01:30am 13.1 SW 2 5 1015.9 - 0.0 - - 10 - - - -
27/01:00am 14.5 WSW 5 6 1016.3 - 0.0 - - 3 - - - -
27/12:30am 14.4 WSW 5 6 1016.5 - 0.0 - Partly cloudy 3 - - - -
27/12:00am 13.3 WSW 3 5 1016.7 - 0.0 - Partly cloudy 3 - - - -
 
Date/Time
EST
Temp

°C
Wind Pressure Rain
since 9am
mm
Weather Cloud Vis
km
Sea
Height
m
Swell
Dir
 
Speed
knots
Gust
knots
hPa Trend Height
m
Period
s
Dir
26/11:56pm 13.6 WSW 3 4 1016.7 - 0.0 - Partly cloudy 5 - - - -
26/11:30pm 14.3 CALM 0 0 1016.8 - 0.0 - Partly cloudy 10 - - - -
26/11:00pm 14.7 SW 5 6 1016.8 - 0.0 - Partly cloudy 10 - - - -
26/10:30pm 13.2 WSW 3 6 1016.8 - 0.0 - - 10 - - - -
26/10:00pm 13.9 CALM 0 0 1016.8 - 0.0 - - 10 - - - -
26/09:30pm 14.2 CALM 0 0 1016.9 - 0.0 - - 10 - - - -
26/09:00pm 14.6 CALM 0 0 1016.9 - 0.0 - - 10 - - - -
26/08:30pm 14.4 CALM 0 0 1016.7 - 0.0 - - 10 - - - -
26/08:00pm 15.8 CALM 0 3 1016.6 - 0.0 - - 10 - - - -
26/07:30pm 16.5 ESE 5 6 1016.3 - 0.0 - - 10 - - - -
26/07:00pm 16.7 ESE 7 8 1015.9 - 0.0 - - 10 - - - -
26/06:30pm 17.6 E 7 8 1015.5 - 0.0 - Partly cloudy 10 - - - -
26/06:00pm 18.2 E 7 9 1015.2 - 0.0 - Mostly clear 10 - - - -
26/05:30pm 19.4 E 9 14 1014.9 - 0.0 - Partly cloudy 10 - - - -
26/05:00pm 20.7 E 11 14 1014.6 - 0.0 - Partly cloudy 10 - - - -
26/04:30pm 21.6 E 11 14 1014.3 - 0.0 - Partly cloudy 10 - - - -
26/04:00pm 22.9 ENE 9 12 1014.0 - 0.0 - Partly cloudy 10 - - - -
26/03:30pm 23.6 E 9 13 1013.9 - 0.0 - Partly cloudy 10 - - - -
26/03:00pm 23.1 ENE 11 13 1013.8 - 0.0 - Partly cloudy 10 - - - -
26/02:30pm 23.2 NNE 10 13 1013.8 - 0.0 - Partly cloudy 10 - - - -
26/02:00pm 23.6 SSW 6 11 1013.9 - 0.0 - Partly cloudy 10 - - - -
26/01:30pm 24.4 SSW 7 11 1014.2 - 0.0 - Partly cloudy 10 - - - -
26/01:00pm 24.7 SSW 7 12 1014.6 - 0.0 - Partly cloudy 10 - - - -
26/12:30pm 24.6 S 9 15 1015.1 - 0.0 - Partly cloudy 10 - - - -
26/12:00pm 24.3 SW 10 13 1015.6 - 0.0 - Mostly clear 10 - - - -
26/11:30am 23.4 SSW 10 16 1016.3 - 0.0 - - 10 - - - -
26/11:00am 22.6 SW 10 12 1016.9 - 0.0 - - 10 - - - -
26/10:30am 22.4 S 8 11 1017.2 - 0.0 - - 10 - - - -
26/10:00am 21.1 S 8 13 1017.6 - 0.0 - - 10 - - - -
26/09:30am 20.5 S 8 13 1017.9 - 0.0 - - 10 - - - -
26/09:00am 20.0 S 9 11 1018.0 - 0.0 - - 10 - - - -
26/08:30am 18.4 SW 7 10 1018.0 - 0.0 - - 10 - - - -
26/08:00am 16.8 SW 7 9 1017.8 - 0.0 - - 10 - - - -
26/07:30am 15.6 SW 7 9 1017.8 - 0.0 - - 10 - - - -
26/07:00am 13.8 SW 6 7 1017.5 - 0.0 - - 10 - - - -
26/06:30am 12.1 WSW 5 6 1017.3 - 0.0 - - 10 - - - -
26/06:00am 12.5 SW 5 6 1017.2 - 0.0 - - 10 - - - -
26/05:30am 13.3 SW 3 5 1016.8 - 0.0 - - 10 - - - -
26/05:00am 12.9 SW 5 7 1016.7 - 0.0 - - 10 - - - -
26/04:30am 12.7 SW 5 6 1016.6 - 0.0 - - 10 - - - -
26/04:00am 13.0 SW 4 5 1016.8 - 0.0 - - 10 - - - -
26/03:30am 13.2 SSW 4 6 1017.0 - 0.0 - - 10 - - - -
26/03:00am 13.5 SSW 5 6 1017.0 - 0.0 - - 10 - - - -
26/02:30am 13.5 SSW 6 8 1017.3 - 0.0 - - 10 - - - -
26/02:00am 13.3 SSW 4 5 1017.4 - 0.0 - - 10 - - - -
26/01:30am 13.4 SSW 4 5 1017.7 - 0.0 - Partly cloudy 10 - - - -
26/01:00am 13.9 SSW 4 5 1017.8 - 0.0 - - 10 - - - -
26/12:30am 14.4 SSW 4 5 1018.1 - 0.0 - Partly cloudy 10 - - - -
26/12:00am 14.4 SSW 5 6 1018.3 - 0.0 - - 10 - - - -
 
Date/Time
EST
Temp

°C
Wind Pressure Rain
since 9am
mm
Weather Cloud Vis
km
Sea
Height
m
Swell
Dir
 
Speed
knots
Gust
knots
hPa Trend Height
m
Period
s
Dir
25/11:30pm 14.4 S 5 7 1018.3 - 0.0 - - 10 - - - -
25/11:00pm 14.3 S 5 7 1018.2 - 0.0 - - 10 - - - -
25/10:30pm 14.0 CALM 0 5 1018.6 - 0.0 - Partly cloudy 10 - - - -
25/10:00pm 14.3 SSE 3 5 1018.6 - 0.0 - - 10 - - - -
25/09:30pm 14.5 SSE 5 7 1018.8 - 0.0 - - 10 - - - -
25/09:00pm 15.5 SSE 6 8 1018.8 - 0.0 - - 10 - - - -
25/08:30pm 15.9 SSE 4 6 1018.8 - 0.0 - - 10 - - - -
25/08:00pm 15.9 SSE 6 8 1018.7 - 0.0 - - 10 - - - -
25/07:30pm 16.2 SE 8 9 1018.5 - 0.0 - - 10 - - - -
25/07:00pm 17.6 ESE 10 12 1018.0 - 0.0 - - 10 - - - -
25/06:30pm 17.9 SE 8 11 1017.7 - 0.0 - - 10 - - - -
25/06:00pm 19.2 ESE 11 14 1017.5 - 0.0 - - 10 - - - -
25/05:30pm 19.9 E 9 12 1017.1 - 0.0 - - 10 - - - -
25/05:00pm 21.2 ESE 13 17 1016.8 - 0.0 - Partly cloudy 10 - - - -
25/04:30pm 21.6 E 12 15 1016.4 - 0.0 - - 10 - - - -
25/04:00pm 22.1 E 13 17 1016.4 - 0.0 - Partly cloudy 10 - - - -
25/03:30pm 23.0 E 14 17 1016.4 - 0.0 - Partly cloudy 10 - - - -
25/03:00pm 24.2 S 9 13 1016.4 - 0.0 - Mostly clear 10 - - - -
25/02:30pm 23.8 S 10 12 1016.5 - 0.0 - Partly cloudy 10 - - - -
25/02:00pm 24.1 SSE 11 17 1016.7 - 0.0 - Partly cloudy 10 - - - -
25/01:30pm 23.7 SSE 11 18 1017.0 - 0.0 - Partly cloudy 10 - - - -
25/01:00pm 23.4 SSE 11 19 1017.5 - 0.0 - Partly cloudy 10 - - - -
25/12:30pm 23.0 S 10 16 1017.7 - 0.0 - Partly cloudy 10 - - - -
25/12:00pm 22.7 SSE 11 17 1018.2 - 0.0 - Partly cloudy 10 - - - -
25/11:30am 22.2 S 10 15 1018.6 - 0.0 - Partly cloudy 10 - - - -
25/11:00am 22.0 S 11 17 1019.2 - 0.0 - Partly cloudy 10 - - - -
25/10:30am 22.0 S 12 18 1019.5 - 0.0 - - 10 - - - -
25/10:00am 21.2 S 12 18 1019.9 - 0.0 - - 10 - - - -
25/09:30am 20.3 S 13 18 1020.1 - 0.0 - - 10 - - - -
25/09:00am 19.3 S 11 18 1020.1 - 0.0 - - 10 - - - -
25/08:30am 17.9 S 12 16 1020.1 - 0.0 - - 10 - - - -
25/08:00am 17.6 SSW 10 17 1020.1 - 0.0 - - 10 - - - -
25/07:30am 15.8 SSW 8 10 1019.9 - 0.0 - - 10 - - - -
25/07:00am 14.0 SW 6 8 1019.8 - 0.0 - - 10 - - - -
25/06:30am 12.9 SSW 6 8 1019.6 - 0.0 - - 10 - - - -
25/06:00am 12.7 SW 5 7 1019.3 - 0.0 - - 10 - - - -
25/05:30am 13.5 SSW 6 10 1018.9 - 0.0 - - 10 - - - -
25/05:00am 14.1 SSW 7 10 1018.6 - 0.0 - - 10 - - - -

Other Formats:

Comma delimited format used in spreadsheet applications
http://www.bom.gov.au/fwo/IDQ60701/IDQ60701.94387.axf

JavaScript Object Notation format (JSON) in row-major order
http://www.bom.gov.au/fwo/IDQ60701/IDQ60701.94387.json